Langwarrin, Victoria

2:54 PM AEDT on December 20, 2014 (GMT +1100)
IVICTORI284 | Change Station
CLOSE
Current Station
Personal Weather Station
Location: Langwarrin, Victoria
Elevation: 292 ft
Nearby Weather Stations

Elev 292 ft 38.16 °S, 145.19 °E | Updated 5 seconds ago

Clear
Clear
76.8 °F
Feels Like 78 °F
N
3.2
Wind Variable Wind from WSW
Gusts 7.6 mph

Today
High -- | Low -- °F
--% Chance of Precip.
Yesterday
High -- | Low -- °F
Precip. -- in
5:51 AM 8:41 PM
Waning Crescent, 5% visible
Pressure 30.04 in
Visibility 6.2 miles
Clouds
Heat Index 78 °F
Dew Point 53 °F
Humidity 43%
Rainfall 0.00 in
Snow Depth Not available.
UV Not available.
Pollen Not available.
Air Quality Not available.
Flu Activity Not available.
METAR YMAV 200330Z AUTO 10014KT 9999 // NCD 22/12 Q1017

More Conditions Fewer Conditions

Pressure 30.04 in
Visibility 6.2 miles
Clouds
Heat Index 78 °F
Dew Point 53 °F
Humidity 43%
Rainfall 0.00 in
Snow Depth Not available.
UV Not available.
Pollen Not available.
Air Quality Not available.
Flu Activity Not available.
METAR YMAV 200330Z AUTO 10014KT 9999 // NCD 22/12 Q1017

More Conditions Fewer Conditions

10-Day Weather Forecast

Almanac

Astronomy

Dec. 20, 2014 Rise Set
Actual Time
Civil Twilight
Nautical Twilight
Astronomical Twilight
Moon
Length of Visible Light
Length of Day
Tomorrow will be .
, % of the Moon is Illuminated

Today's Extremes

Country Highs Country Lows

Community

WunderPhotos

Upload Photos

1,779,126 photos uploaded!

WunderBlogs® & News

Nearby

Air Quality

  Air Quality AQ Index Pollutant
Not available.

Snow Depth

Station Depth Elevation

Earthquake Activity

City Distance Mag. Time & Date
Minimum magnitude displayed is 2.5.

Coastal Water Temperatures

Place Temperature

Nearby Weather Stations